Time;durP1;ratioP1;P1;durP2;ratioP2;P2;SDS_P1;SDS_P2;PMS_P1;PMS_P2;Temp;Humidity;BMP_temperature;BMP_pressure;BME280_temperature;BME280_humidity;BME280_pressure;Samples;Min_cycle;Max_cycle;Signal;HPM_P1;HPM_P2
2023/04/25 00:02:22;;;;;;;7.90;4.37;;;8.60;1.00;;;;;;6188605;23;20227;-90
2023/04/25 00:04:48;;;;;;;9.20;4.40;;;8.70;1.00;;;;;;6188810;23;20208;-90
2023/04/25 00:07:15;;;;;;;10.97;4.50;;;8.20;1.00;;;;;;6188703;23;20169;-90
2023/04/25 00:09:43;;;;;;;8.50;4.30;;;8.20;1.00;;;;;;6214828;23;20620;-89
2023/04/25 00:12:09;;;;;;;10.37;4.70;;;8.30;1.00;;;;;;6188523;23;20723;-90
2023/04/25 00:14:37;;;;;;;6.97;4.17;;;8.30;1.00;;;;;;6163950;23;20159;-90
2023/04/25 00:17:04;;;;;;;7.93;4.23;;;9.00;1.00;;;;;;6139642;23;20157;-90
2023/04/25 00:19:30;;;;;;;8.80;4.80;;;8.70;1.00;;;;;;6188899;23;20237;-90
2023/04/25 00:21:55;;;;;;;8.17;4.70;;;8.20;1.00;;;;;;6188513;23;20465;-90
2023/04/25 00:24:22;;;;;;;9.30;4.50;;;8.20;1.00;;;;;;6215688;23;20154;-90
2023/04/25 00:26:55;;;;;;;10.80;5.00;;;8.40;1.00;;;;;;6215761;23;20147;-90
2023/04/25 00:29:20;;;;;;;9.20;4.03;;;8.10;1.00;;;;;;6189215;23;20154;-91
2023/04/25 00:31:46;;;;;;;8.67;4.20;;;8.00;1.00;;;;;;6188502;23;20209;-92
2023/04/25 00:34:12;;;;;;;9.37;4.37;;;8.00;1.00;;;;;;6188605;23;20174;-90
2023/04/25 00:36:47;;;;;;;10.47;4.87;;;8.00;1.00;;;;;;6188875;23;20257;-90
2023/04/25 00:39:29;;;;;;;8.40;4.47;;;8.40;1.00;;;;;;6189035;23;20253;-90
2023/04/25 00:41:55;;;;;;;8.90;4.97;;;8.60;1.00;;;;;;6188976;23;20265;-90
2023/04/25 00:44:43;;;;;;;7.93;4.73;;;8.70;1.00;;;;;;6188547;23;20186;-89
2023/04/25 00:47:19;;;;;;;7.97;3.93;;;8.00;1.00;;;;;;6215622;23;20491;-89
2023/04/25 00:50:12;;;;;;;8.27;4.47;;;8.70;1.00;;;;;;6188507;23;20229;-90
2023/04/25 00:52:46;;;;;;;8.30;4.23;;;8.60;1.00;;;;;;6184681;23;20216;-90
2023/04/25 00:55:16;;;;;;;8.67;4.37;;;8.70;1.00;;;;;;6188381;23;20486;-90
2023/04/25 00:57:47;;;;;;;7.87;4.47;;;8.60;1.00;;;;;;6164305;23;20199;-90
2023/04/25 01:00:23;;;;;;;9.10;5.10;;;8.50;1.00;;;;;;6188820;23;20165;-90
2023/04/25 01:02:57;;;;;;;9.87;5.27;;;8.00;1.00;;;;;;6188608;23;20185;-89
2023/04/25 01:05:32;;;;;;;8.27;4.90;;;8.10;1.00;;;;;;6190494;23;20172;-89
2023/04/25 01:08:14;;;;;;;7.70;4.17;;;8.70;1.00;;;;;;6191990;23;20536;-89
2023/04/25 01:10:42;;;;;;;10.23;4.90;;;8.50;1.00;;;;;;6182339;23;20189;-90
2023/04/25 01:13:08;;;;;;;11.70;5.30;;;8.00;1.00;;;;;;6158753;23;20240;-90
2023/04/25 01:15:40;;;;;;;7.40;4.53;;;8.10;1.00;;;;;;6184226;23;20158;-89
2023/04/25 01:18:06;;;;;;;9.43;5.77;;;8.00;1.00;;;;;;6183284;23;20158;-89
2023/04/25 01:20:33;;;;;;;10.23;4.70;;;8.50;1.00;;;;;;6158705;23;20174;-90
2023/04/25 01:23:03;;;;;;;6.57;4.03;;;9.10;1.00;;;;;;6176231;23;20183;-89
2023/04/25 01:25:30;;;;;;;12.20;4.77;;;8.10;1.00;;;;;;6183248;23;20848;-90
2023/04/25 01:27:56;;;;;;;8.23;4.70;;;8.50;1.00;;;;;;6183228;23;20912;-88
2023/04/25 01:30:22;;;;;;;9.80;4.53;;;8.10;1.00;;;;;;6183546;23;20190;-89
2023/04/25 01:32:49;;;;;;;10.03;4.47;;;8.10;1.00;;;;;;6181613;23;20245;-90
2023/04/25 01:35:14;;;;;;;12.17;4.97;;;8.00;1.00;;;;;;6178266;23;20155;-89
2023/04/25 01:37:41;;;;;;;9.33;4.73;;;8.00;1.00;;;;;;6178213;23;20170;-88
2023/04/25 01:40:09;;;;;;;8.03;4.63;;;8.50;1.00;;;;;;6178054;23;20189;-89
2023/04/25 01:42:36;;;;;;;8.60;5.30;;;8.00;1.00;;;;;;6178178;23;20193;-91
2023/04/25 01:45:02;;;;;;;8.77;4.80;;;8.10;1.00;;;;;;6178464;23;20170;-90
2023/04/25 01:47:28;;;;;;;8.57;4.47;;;8.00;1.00;;;;;;6177811;23;20257;-89
2023/04/25 01:49:58;;;;;;;7.00;4.53;;;7.90;1.00;;;;;;6177945;23;20213;-89
2023/04/25 01:52:33;;;;;;;16.37;6.37;;;8.00;1.00;;;;;;6177994;23;20709;-90
2023/04/25 01:55:02;;;;;;;12.53;5.00;;;8.00;1.00;;;;;;6177925;23;20506;-89
2023/04/25 01:57:28;;;;;;;8.23;4.60;;;8.20;1.00;;;;;;6177943;23;20245;-88
2023/04/25 02:00:02;;;;;;;6.73;4.67;;;8.00;1.00;;;;;;6177493;23;20240;-89
2023/04/25 02:02:28;;;;;;;9.30;5.40;;;8.00;1.00;;;;;;6177747;23;20183;-89
2023/04/25 02:04:54;;;;;;;11.57;5.67;;;8.10;1.00;;;;;;6153349;23;20163;-86
2023/04/25 02:07:20;;;;;;;9.70;5.47;;;8.10;1.00;;;;;;6153158;23;20250;-88
2023/04/25 02:09:46;;;;;;;8.80;5.00;;;8.00;1.00;;;;;;6178113;23;20217;-88
2023/04/25 02:12:13;;;;;;;12.10;5.93;;;8.20;1.00;;;;;;6177984;23;20191;-89
2023/04/25 02:14:38;;;;;;;9.33;5.20;;;7.90;1.00;;;;;;6177687;23;20155;-88
2023/04/25 02:17:05;;;;;;;10.90;4.80;;;7.90;1.00;;;;;;6177882;23;20246;-89
2023/04/25 02:19:31;;;;;;;8.47;5.10;;;8.00;1.00;;;;;;6177412;23;20163;-88
2023/04/25 02:21:56;;;;;;;9.10;4.53;;;8.00;1.00;;;;;;6177633;23;20209;-89
2023/04/25 02:24:23;;;;;;;7.37;5.27;;;8.00;1.00;;;;;;6177388;23;20155;-89
2023/04/25 02:26:49;;;;;;;10.63;4.53;;;8.10;1.00;;;;;;6177287;23;20163;-87
2023/04/25 02:29:15;;;;;;;10.47;5.47;;;8.00;1.00;;;;;;6179212;23;20491;-88
2023/04/25 02:31:41;;;;;;;9.10;4.90;;;8.00;1.00;;;;;;6177159;23;20662;-89
2023/04/25 02:34:07;;;;;;;10.93;5.20;;;8.10;1.00;;;;;;6152194;23;20273;-90
2023/04/25 02:36:35;;;;;;;8.17;4.97;;;8.20;1.00;;;;;;6152406;23;20246;-89
2023/04/25 02:39:02;;;;;;;8.83;4.90;;;8.30;1.00;;;;;;6176910;23;20173;-88
2023/04/25 02:41:28;;;;;;;8.87;5.00;;;8.00;1.00;;;;;;6177288;23;20175;-88
2023/04/25 02:43:54;;;;;;;8.23;5.17;;;7.90;1.00;;;;;;6152236;23;20226;-90
2023/04/25 02:46:21;;;;;;;9.83;5.37;;;8.00;1.00;;;;;;6177255;23;20163;-90
2023/04/25 02:48:47;;;;;;;8.73;5.10;;;8.00;1.00;;;;;;6176970;23;20167;-88
2023/04/25 02:51:16;;;;;;;8.87;5.10;;;8.00;1.00;;;;;;6177029;23;20205;-89
2023/04/25 02:53:41;;;;;;;10.27;5.67;;;8.00;1.00;;;;;;6176932;23;20221;-88
2023/04/25 02:56:07;;;;;;;11.90;5.60;;;8.10;1.00;;;;;;6177058;23;20162;-87
2023/04/25 02:58:33;;;;;;;12.53;6.13;;;8.10;1.00;;;;;;6176644;23;20159;-88
2023/04/25 03:00:58;;;;;;;10.17;5.90;;;8.10;1.00;;;;;;6177331;23;20498;-89
2023/04/25 03:03:35;;;;;;;9.20;5.53;;;8.00;1.00;;;;;;6176951;23;20167;-91
2023/04/25 03:06:02;;;;;;;11.80;5.40;;;8.10;1.00;;;;;;6177305;23;20151;-89
2023/04/25 03:08:32;;;;;;;11.97;6.53;;;8.20;1.00;;;;;;6178240;23;20226;-89
2023/04/25 03:10:58;;;;;;;9.33;6.03;;;8.00;1.00;;;;;;6177118;23;20556;-89
2023/04/25 03:13:24;;;;;;;8.13;5.33;;;8.00;1.00;;;;;;6176662;23;20531;-89
2023/04/25 03:15:50;;;;;;;9.17;5.57;;;8.40;1.00;;;;;;6177102;23;20330;-89
2023/04/25 03:18:15;;;;;;;10.90;6.00;;;8.00;1.00;;;;;;6176687;23;20186;-90
2023/04/25 03:20:41;;;;;;;11.57;6.23;;;7.90;1.00;;;;;;6177137;23;20159;-90
2023/04/25 03:23:07;;;;;;;11.50;6.10;;;7.90;1.00;;;;;;6176827;23;20635;-90
2023/04/25 03:25:34;;;;;;;9.60;6.30;;;7.90;1.00;;;;;;6178493;23;20608;-88
2023/04/25 03:27:59;;;;;;;11.43;6.57;;;7.90;1.00;;;;;;6177017;23;20237;-89
2023/04/25 03:30:25;;;;;;;8.43;6.47;;;7.80;1.00;;;;;;6176696;23;20163;-89
2023/04/25 03:32:51;;;;;;;12.43;7.00;;;7.90;1.00;;;;;;6178261;23;20213;-90
2023/04/25 03:35:17;;;;;;;11.03;5.97;;;7.90;1.00;;;;;;6176687;23;20163;-89
2023/04/25 03:37:47;;;;;;;11.57;6.73;;;7.90;1.00;;;;;;6176513;23;20163;-88
2023/04/25 03:40:12;;;;;;;10.50;6.27;;;7.90;1.00;;;;;;6176874;23;20164;-89
2023/04/25 03:42:38;;;;;;;10.17;6.47;;;8.10;1.00;;;;;;6176838;23;20526;-89
2023/04/25 03:45:04;;;;;;;12.13;6.27;;;7.90;1.00;;;;;;6177346;23;20163;-89
2023/04/25 03:47:33;;;;;;;10.63;5.93;;;7.90;1.00;;;;;;6178462;23;20163;-89
2023/04/25 03:50:02;;;;;;;9.60;6.37;;;7.80;1.00;;;;;;6176837;23;20163;-90
2023/04/25 15:18:41;;;;;;;2.03;1.10;;;9.50;1.00;;;;;;6226083;22;20278;-89
2023/04/25 15:21:07;;;;;;;4.70;1.43;;;9.60;1.00;;;;;;6214026;23;20589;-91
2023/04/25 15:23:35;;;;;;;2.80;1.30;;;10.90;1.00;;;;;;6214593;23;20146;-91
2023/04/25 15:26:01;;;;;;;5.50;1.90;;;9.70;1.00;;;;;;6214018;23;20222;-92
2023/04/25 15:28:27;;;;;;;3.27;1.43;;;9.60;1.00;;;;;;6215233;23;20166;-90
2023/04/25 15:30:53;;;;;;;4.00;1.60;;;9.60;1.00;;;;;;6205418;23;20161;-89
2023/04/25 15:33:18;;;;;;;4.87;1.57;;;9.60;1.00;;;;;;6187500;23;20650;-89
2023/04/25 15:35:44;;;;;;;4.23;1.80;;;9.70;1.00;;;;;;6187992;23;20185;-89
2023/04/25 15:38:11;;;;;;;4.67;1.80;;;9.50;1.00;;;;;;6187942;23;20158;-88
2023/04/25 15:40:36;;;;;;;4.63;2.30;;;9.60;1.00;;;;;;6214502;23;20181;-88
2023/04/25 15:43:02;;;;;;;3.63;1.50;;;9.50;1.00;;;;;;6187697;23;20190;-89
2023/04/25 15:45:28;;;;;;;4.40;1.50;;;9.40;1.00;;;;;;6188876;23;20162;-89
2023/04/25 15:47:55;;;;;;;3.70;1.50;;;9.40;1.00;;;;;;6188537;23;20162;-89
2023/04/25 15:50:21;;;;;;;2.10;1.13;;;9.50;1.00;;;;;;6188413;23;20216;-89
2023/04/25 15:52:51;;;;;;;2.27;1.27;;;9.50;1.00;;;;;;6189807;23;20182;-88
2023/04/25 15:55:18;;;;;;;2.70;1.47;;;9.60;1.00;;;;;;6190092;23;20158;-89
2023/04/25 15:57:44;;;;;;;2.00;1.10;;;10.00;1.00;;;;;;6189935;23;20673;-89
2023/04/25 16:00:14;;;;;;;2.50;1.00;;;9.60;1.00;;;;;;6189782;23;20165;-89
2023/04/25 16:02:41;;;;;;;4.77;1.23;;;9.60;1.00;;;;;;6213759;23;20798;-90
2023/04/25 16:05:08;;;;;;;3.70;1.30;;;9.50;1.00;;;;;;6187149;23;20191;-89
2023/04/25 16:07:33;;;;;;;3.13;1.10;;;9.30;1.00;;;;;;6187209;23;20178;-89
2023/04/25 16:09:59;;;;;;;2.63;1.10;;;9.30;1.00;;;;;;6190012;23;20228;-90
2023/04/25 16:12:25;;;;;;;2.17;1.00;;;9.20;1.00;;;;;;6190648;23;20170;-88
2023/04/25 16:14:50;;;;;;;2.73;1.20;;;10.50;1.00;;;;;;6190638;23;20189;-89
2023/04/25 16:17:16;;;;;;;2.47;1.33;;;9.10;1.00;;;;;;6188087;23;20213;-88
2023/04/25 16:19:41;;;;;;;2.03;1.00;;;9.10;1.00;;;;;;6212835;23;20609;-89
2023/04/25 16:22:08;;;;;;;4.63;1.33;;;9.00;1.00;;;;;;6188339;23;20178;-88
2023/04/25 16:24:34;;;;;;;3.40;1.67;;;9.10;1.00;;;;;;6188416;23;20162;-89
2023/04/25 16:26:59;;;;;;;5.23;2.60;;;9.00;1.00;;;;;;6188410;23;20600;-91
2023/04/25 16:29:25;;;;;;;4.57;1.87;;;8.90;1.00;;;;;;6187660;23;20170;-89
2023/04/25 16:31:51;;;;;;;2.20;1.10;;;8.80;1.00;;;;;;6187842;23;20182;-89
2023/04/25 16:34:16;;;;;;;3.37;1.67;;;8.70;1.00;;;;;;6188300;23;20535;-88
2023/04/25 16:36:42;;;;;;;3.80;1.57;;;8.60;1.00;;;;;;6188029;23;20159;-89
2023/04/25 16:39:07;;;;;;;3.20;1.30;;;8.50;1.00;;;;;;6187847;23;20158;-88
2023/04/25 16:41:33;;;;;;;2.83;1.40;;;8.50;1.00;;;;;;6187919;23;20182;-89
2023/04/25 16:43:59;;;;;;;3.10;1.40;;;8.50;1.00;;;;;;6187389;23;20169;-89
2023/04/25 16:46:25;;;;;;;3.40;1.20;;;8.60;1.00;;;;;;6187505;23;20165;-88
2023/04/25 16:48:50;;;;;;;3.27;1.57;;;8.90;1.00;;;;;;6186030;23;20162;-88
2023/04/25 16:51:16;;;;;;;3.97;1.30;;;8.70;1.00;;;;;;6184781;23;20196;-89
2023/04/25 16:53:42;;;;;;;3.37;1.50;;;8.80;1.00;;;;;;6185535;23;20178;-88
2023/04/25 16:56:08;;;;;;;2.90;1.40;;;8.90;1.00;;;;;;6188025;23;20178;-89
2023/04/25 16:58:34;;;;;;;3.63;1.60;;;8.90;1.00;;;;;;6187966;23;20150;-89
2023/04/25 17:01:55;;;;;;;3.83;1.80;;;8.80;1.00;;;;;;6189805;23;20165;-89
2023/04/25 17:04:21;;;;;;;3.67;1.80;;;8.70;1.00;;;;;;6188645;23;20158;-89
2023/04/25 17:06:46;;;;;;;3.77;1.70;;;8.50;1.00;;;;;;6186769;23;20241;-89
2023/04/25 17:09:12;;;;;;;2.87;1.43;;;8.50;1.00;;;;;;6187099;23;20166;-92
2023/04/25 17:11:38;;;;;;;4.77;1.67;;;8.40;1.00;;;;;;6186284;23;20182;-89
2023/04/25 17:14:26;;;;;;;2.93;1.40;;;8.30;1.00;;;;;;6162625;23;20642;-89
2023/04/25 17:16:52;;;;;;;4.00;1.40;;;8.30;1.00;;;;;;6188018;23;20189;-89
2023/04/25 17:19:17;;;;;;;4.70;1.90;;;8.20;1.00;;;;;;6186268;23;20178;-89
2023/04/25 17:21:43;;;;;;;4.37;1.67;;;8.60;1.00;;;;;;6186347;23;20178;-92
2023/04/25 17:24:09;;;;;;;2.70;1.20;;;8.10;1.00;;;;;;6186068;23;20165;-90
2023/04/25 17:26:35;;;;;;;3.87;1.53;;;8.10;1.00;;;;;;6186080;23;20158;-90
2023/04/25 17:29:05;;;;;;;3.10;1.30;;;8.20;1.00;;;;;;6187124;23;20209;-91
2023/04/25 17:31:31;;;;;;;3.27;1.60;;;8.20;1.00;;;;;;6160857;23;20185;-90
2023/04/25 17:33:56;;;;;;;2.50;1.30;;;8.40;1.00;;;;;;6185384;23;20240;-91
2023/04/25 17:36:23;;;;;;;3.47;1.07;;;8.40;1.00;;;;;;6185733;23;20468;-91
2023/04/25 17:38:49;;;;;;;2.43;1.23;;;8.50;1.00;;;;;;6212924;23;20135;-91
2023/04/25 17:41:14;;;;;;;2.43;1.20;;;8.40;1.00;;;;;;6186277;23;20155;-91
2023/04/25 17:43:40;;;;;;;2.43;1.10;;;8.30;1.00;;;;;;6185196;23;20173;-90
2023/04/25 17:46:06;;;;;;;3.13;1.10;;;8.30;1.00;;;;;;6185247;23;20266;-91
2023/04/25 17:48:31;;;;;;;2.67;1.10;;;8.10;1.00;;;;;;6185111;23;20777;-90
2023/04/25 17:50:57;;;;;;;2.17;0.97;;;8.10;1.00;;;;;;6185382;23;20494;-91
2023/04/25 17:53:23;;;;;;;1.43;1.20;;;8.10;1.00;;;;;;6184725;23;20194;-90
2023/04/25 17:55:49;;;;;;;1.90;1.33;;;8.10;1.00;;;;;;6185012;23;20154;-90
2023/04/25 17:58:15;;;;;;;3.60;1.33;;;8.10;1.00;;;;;;6186758;23;20301;-90
2023/04/25 18:00:41;;;;;;;2.67;1.10;;;8.10;1.00;;;;;;6213515;23;20191;-90
2023/04/25 18:03:07;;;;;;;3.87;1.43;;;8.20;1.00;;;;;;6186184;23;20212;-89
2023/04/25 18:05:33;;;;;;;3.60;1.50;;;8.10;1.00;;;;;;6186891;23;20189;-88
2023/04/25 18:07:59;;;;;;;4.00;1.30;;;8.10;1.00;;;;;;6212923;23;20496;-89
2023/04/25 18:10:25;;;;;;;2.30;1.30;;;8.10;1.00;;;;;;6186336;23;20172;-91
2023/04/25 18:12:50;;;;;;;2.03;1.10;;;8.00;1.00;;;;;;6187525;23;20268;-89
2023/04/25 18:15:16;;;;;;;3.67;1.23;;;8.00;1.00;;;;;;6186776;23;20586;-90
2023/04/25 18:17:42;;;;;;;3.00;1.40;;;8.00;1.00;;;;;;6186805;23;20479;-91
2023/04/25 18:20:13;;;;;;;2.27;1.20;;;8.40;1.00;;;;;;6217087;23;20142;-89
2023/04/25 18:22:39;;;;;;;1.87;1.30;;;7.80;1.00;;;;;;6191704;23;20175;-91
2023/04/25 18:25:07;;;;;;;2.37;1.30;;;7.80;1.00;;;;;;6191538;23;20185;-91
2023/04/25 18:27:32;;;;;;;2.70;1.57;;;7.70;1.00;;;;;;6190580;23;20205;-92
2023/04/25 18:29:59;;;;;;;5.17;2.10;;;7.70;1.00;;;;;;6190786;23;20159;-91
2023/04/25 18:32:27;;;;;;;4.80;2.10;;;7.70;1.00;;;;;;6190974;23;20174;-92
2023/04/25 18:34:53;;;;;;;2.60;1.23;;;8.60;1.00;;;;;;6191406;23;20245;-91
2023/04/25 18:37:19;;;;;;;5.80;2.00;;;7.80;1.00;;;;;;6191140;23;20243;-91
2023/04/25 18:39:45;;;;;;;3.40;1.50;;;7.80;1.00;;;;;;6194568;23;20199;-91
2023/04/25 18:42:11;;;;;;;3.63;1.77;;;7.90;1.00;;;;;;6191475;23;20634;-91
2023/04/25 18:44:39;;;;;;;5.73;1.63;;;7.90;1.00;;;;;;6191455;23;20209;-91
2023/04/25 18:47:06;;;;;;;3.30;1.60;;;7.90;1.00;;;;;;6191582;23;20707;-91
2023/04/25 18:49:32;;;;;;;5.90;1.57;;;8.80;1.00;;;;;;6190891;23;20211;-91
2023/04/25 18:51:58;;;;;;;3.17;1.40;;;7.90;1.00;;;;;;6190974;23;20185;-91
2023/04/25 18:54:23;;;;;;;2.17;1.37;;;7.80;1.00;;;;;;6217627;23;20182;-90
2023/04/25 18:56:50;;;;;;;3.70;1.67;;;7.70;1.00;;;;;;6192158;23;20181;-90
2023/04/25 18:59:16;;;;;;;5.93;2.07;;;7.50;1.00;;;;;;6191292;23;20253;-90
2023/04/25 19:01:54;;;;;;;4.43;2.07;;;7.40;1.00;;;;;;6202924;23;20174;-92
2023/04/25 19:04:20;;;;;;;4.73;2.00;;;7.40;1.00;;;;;;6190515;23;20184;-91
2023/04/25 19:06:48;;;;;;;4.18;1.95;;;7.30;1.00;;;;;;6190895;23;20815;-92
2023/04/25 19:09:14;;;;;;;3.40;1.73;;;7.30;1.00;;;;;;6190583;23;20165;-92
2023/04/25 19:11:39;;;;;;;5.23;2.33;;;7.30;1.00;;;;;;6191377;23;20440;-92
2023/04/25 19:14:05;;;;;;;4.18;2.13;;;7.30;1.00;;;;;;6198980;23;20426;-93
2023/04/25 19:16:37;;;;;;;5.80;2.30;;;8.40;1.00;;;;;;6215023;23;20396;-92
2023/04/25 19:19:04;;;;;;;3.77;2.37;;;7.20;1.00;;;;;;6206797;23;20174;-90
2023/04/25 19:21:31;;;;;;;8.23;2.77;;;8.20;1.00;;;;;;6193017;23;20178;-90
2023/04/25 19:23:57;;;;;;;6.97;2.60;;;8.00;1.00;;;;;;6191891;23;20158;-91
2023/04/25 19:26:23;;;;;;;6.87;2.53;;;8.40;1.00;;;;;;6193179;23;20483;-91
2023/04/25 19:29:08;;;;;;;5.65;2.50;;;8.10;1.00;;;;;;6191972;23;20388;-91
2023/04/25 19:31:36;;;;;;;5.75;2.80;;;7.00;1.00;;;;;;6191275;23;20382;-90
2023/04/25 19:34:03;;;;;;;5.97;2.70;;;7.30;1.00;;;;;;6190548;23;20209;-91
2023/04/25 19:36:29;;;;;;;7.25;3.70;;;7.00;1.00;;;;;;6189874;23;20388;-91
2023/04/25 19:39:00;;;;;;;5.67;2.67;;;6.90;1.00;;;;;;6197230;23;20216;-91
2023/04/25 19:41:27;;;;;;;6.72;3.50;;;6.80;1.00;;;;;;6192255;23;20373;-92
2023/04/25 19:43:52;;;;;;;5.63;3.23;;;6.70;1.00;;;;;;6188143;23;20158;-91
2023/04/25 19:46:18;;;;;;;5.30;2.20;;;6.70;1.00;;;;;;6188095;23;20177;-92
2023/04/25 19:48:43;;;;;;;4.20;2.30;;;6.70;1.00;;;;;;6187907;23;20237;-91
2023/04/25 19:51:09;;;;;;;7.87;2.70;;;6.60;1.00;;;;;;6187729;23;20158;-92
2023/04/25 19:53:34;;;;;;;5.73;2.60;;;6.50;1.00;;;;;;6189697;23;20182;-92
2023/04/25 19:56:01;;;;;;;4.80;2.50;;;6.50;1.00;;;;;;6194299;23;20239;-89
2023/04/25 19:58:26;;;;;;;5.80;2.67;;;6.40;1.00;;;;;;6178222;23;20169;-90
2023/04/25 20:00:52;;;;;;;7.57;2.90;;;6.40;1.00;;;;;;6194357;23;20230;-90
2023/04/25 20:03:18;;;;;;;6.43;2.90;;;6.30;1.00;;;;;;6185448;23;20183;-90
2023/04/25 20:05:43;;;;;;;4.43;2.83;;;6.30;1.00;;;;;;6185352;23;20536;-90
2023/04/25 20:08:09;;;;;;;7.10;2.80;;;6.40;1.00;;;;;;6185672;23;20188;-90
2023/04/25 20:10:35;;;;;;;5.60;2.57;;;6.40;1.00;;;;;;6185591;23;20168;-91
2023/04/25 20:13:01;;;;;;;4.73;2.40;;;6.40;1.00;;;;;;6184680;23;20228;-87
2023/04/25 20:15:27;;;;;;;5.60;2.70;;;6.30;1.00;;;;;;6183830;23;20661;-91
2023/04/25 20:17:52;;;;;;;5.97;2.57;;;6.30;1.00;;;;;;6182611;23;20912;-90
2023/04/25 20:20:18;;;;;;;4.17;2.10;;;6.20;1.00;;;;;;6183717;23;20161;-90
2023/04/25 20:22:44;;;;;;;8.30;2.63;;;6.20;1.00;;;;;;6182668;23;20182;-90
2023/04/25 20:25:12;;;;;;;5.57;2.23;;;6.20;1.00;;;;;;6182815;23;20424;-91
2023/04/25 20:27:38;;;;;;;6.63;2.60;;;6.20;1.00;;;;;;6183609;23;20193;-91
2023/04/25 20:30:10;;;;;;;4.80;2.20;;;6.30;1.00;;;;;;6182139;23;20189;-91
2023/04/25 20:32:40;;;;;;;6.73;2.33;;;6.20;1.00;;;;;;6182818;23;20206;-90
2023/04/25 20:35:08;;;;;;;6.07;2.33;;;6.20;1.00;;;;;;6183247;23;20154;-91
2023/04/25 20:37:34;;;;;;;5.67;2.30;;;6.20;1.00;;;;;;6183369;23;20249;-90
2023/04/25 20:40:01;;;;;;;6.97;2.73;;;6.20;1.00;;;;;;6182779;23;20202;-91
2023/04/25 20:42:27;;;;;;;6.23;2.60;;;6.20;1.00;;;;;;6184242;23;20186;-91
2023/04/25 20:44:53;;;;;;;5.93;2.50;;;6.10;1.00;;;;;;6183081;23;20189;-91
2023/04/25 20:47:19;;;;;;;5.43;2.30;;;6.00;1.00;;;;;;6182599;23;20254;-92
2023/04/25 20:49:44;;;;;;;3.97;2.10;;;6.00;1.00;;;;;;6182105;23;20197;-90
2023/04/25 20:52:11;;;;;;;6.07;2.43;;;6.10;1.00;;;;;;6182636;23;20236;-91
2023/04/25 20:54:36;;;;;;;5.17;2.10;;;6.10;1.00;;;;;;6182127;23;20190;-91
2023/04/25 20:57:02;;;;;;;3.83;2.23;;;6.10;1.00;;;;;;6182219;23;20159;-91
2023/04/25 20:59:27;;;;;;;5.13;2.17;;;7.00;1.00;;;;;;6181721;23;20486;-91
2023/04/25 21:01:53;;;;;;;4.90;2.17;;;6.00;1.00;;;;;;6181947;23;20200;-90
2023/04/25 21:04:19;;;;;;;5.93;2.00;;;6.00;1.00;;;;;;6181764;23;20169;-91
2023/04/25 21:06:45;;;;;;;6.13;2.10;;;6.00;1.00;;;;;;6182330;23;20162;-91
2023/04/25 21:09:12;;;;;;;5.00;2.00;;;5.90;1.00;;;;;;6208148;23;20163;-90
2023/04/25 21:11:38;;;;;;;5.97;1.80;;;5.90;1.00;;;;;;6208797;23;20178;-90
2023/04/25 21:14:04;;;;;;;6.03;1.80;;;5.90;1.00;;;;;;6182403;23;20701;-91
2023/04/25 21:16:31;;;;;;;5.97;2.00;;;5.90;1.00;;;;;;6182309;23;20158;-90
2023/04/25 21:18:57;;;;;;;6.50;1.90;;;5.80;1.00;;;;;;6181964;23;20178;-89
2023/04/25 21:21:23;;;;;;;2.83;1.70;;;5.80;1.00;;;;;;6182062;23;20177;-90
2023/04/25 21:23:49;;;;;;;5.47;1.83;;;5.90;1.00;;;;;;6183785;23;20169;-91
2023/04/25 21:26:15;;;;;;;5.67;1.87;;;6.90;1.00;;;;;;6188712;23;20473;-91
2023/04/25 21:28:40;;;;;;;4.30;1.90;;;7.40;1.00;;;;;;6163631;23;20169;-91
2023/04/25 21:31:06;;;;;;;3.63;1.90;;;5.90;1.00;;;;;;6189082;23;20249;-91
2023/04/25 21:33:32;;;;;;;4.70;2.17;;;5.90;1.00;;;;;;6190123;23;20204;-91
2023/04/25 21:35:57;;;;;;;4.57;1.77;;;5.90;1.00;;;;;;6189787;23;20154;-91
2023/04/25 21:38:24;;;;;;;5.07;1.80;;;5.80;1.00;;;;;;6189923;23;20158;-91
2023/04/25 21:40:49;;;;;;;2.47;1.40;;;5.90;1.00;;;;;;6190482;23;20200;-90
2023/04/25 21:43:15;;;;;;;5.87;2.13;;;5.70;1.00;;;;;;6190069;23;20206;-91
2023/04/25 21:45:40;;;;;;;5.50;1.90;;;5.60;1.00;;;;;;6190385;23;20161;-91
2023/04/25 21:48:06;;;;;;;5.73;2.20;;;5.60;1.00;;;;;;6190349;23;20166;-91
2023/04/25 21:50:32;;;;;;;7.03;2.13;;;6.00;1.00;;;;;;6190269;23;20542;-91
2023/04/25 21:52:58;;;;;;;4.60;2.10;;;5.70;1.00;;;;;;6184995;23;20592;-90
2023/04/25 21:55:25;;;;;;;6.67;2.50;;;5.60;1.00;;;;;;6183260;23;20637;-91
2023/04/25 21:57:51;;;;;;;3.57;1.77;;;5.60;1.00;;;;;;6183214;23;20158;-91
2023/04/25 22:00:26;;;;;;;5.33;2.03;;;5.60;1.00;;;;;;6183347;23;20211;-90
2023/04/25 22:02:54;;;;;;;5.40;2.00;;;5.70;1.00;;;;;;6183176;23;20177;-91
2023/04/25 22:05:21;;;;;;;6.23;2.20;;;5.60;1.00;;;;;;6183237;23;20200;-91
2023/04/25 22:07:49;;;;;;;4.13;1.97;;;5.50;1.00;;;;;;6183204;23;20182;-91
2023/04/25 22:10:14;;;;;;;5.83;1.87;;;5.60;1.00;;;;;;6209681;23;20146;-90
2023/04/25 22:12:40;;;;;;;8.60;2.20;;;5.60;1.00;;;;;;6183246;23;20278;-90
2023/04/25 22:15:07;;;;;;;6.67;2.00;;;5.60;1.00;;;;;;6183109;23;20204;-91
2023/04/25 22:17:33;;;;;;;8.50;2.43;;;5.60;1.00;;;;;;6183346;23;20155;-90
2023/04/25 22:20:01;;;;;;;5.80;2.17;;;5.40;1.00;;;;;;6182893;23;20177;-91
2023/04/25 22:22:26;;;;;;;8.47;1.80;;;5.30;1.00;;;;;;6183045;23;20186;-91
2023/04/25 22:24:53;;;;;;;6.27;1.60;;;5.90;1.00;;;;;;6183021;23;20236;-91
2023/04/25 22:27:19;;;;;;;5.83;2.13;;;5.50;1.00;;;;;;6183276;23;20155;-91
2023/04/25 22:29:45;;;;;;;5.00;1.93;;;5.60;1.00;;;;;;6182918;23;20158;-90
2023/04/25 22:32:10;;;;;;;5.27;1.97;;;5.60;1.00;;;;;;6183178;23;20600;-91
2023/04/25 22:34:36;;;;;;;4.33;2.20;;;5.80;1.00;;;;;;6182616;23;20193;-91
2023/04/25 22:37:03;;;;;;;6.50;2.13;;;5.80;1.00;;;;;;6183565;23;20180;-91
2023/04/25 22:39:29;;;;;;;7.70;2.63;;;5.80;1.00;;;;;;6209200;23;20205;-90
2023/04/25 22:41:54;;;;;;;4.40;2.27;;;5.80;1.00;;;;;;6183117;23;20190;-90
2023/04/25 22:44:21;;;;;;;4.77;2.43;;;5.60;1.00;;;;;;6181852;23;20710;-91
2023/04/25 22:46:46;;;;;;;6.70;1.70;;;5.70;1.00;;;;;;6209740;23;20159;-91
2023/04/25 22:49:12;;;;;;;5.90;2.00;;;5.60;1.00;;;;;;6182692;23;20173;-90
2023/04/25 22:51:38;;;;;;;5.33;2.20;;;5.50;1.00;;;;;;6182823;23;20213;-91
2023/04/25 22:54:04;;;;;;;5.80;1.97;;;5.40;1.00;;;;;;6183547;23;20182;-91
2023/04/25 22:56:29;;;;;;;4.67;2.10;;;5.40;1.00;;;;;;6182922;23;20169;-91
2023/04/25 22:58:55;;;;;;;7.30;2.30;;;5.30;1.00;;;;;;6183000;23;20233;-90
2023/04/25 23:01:21;;;;;;;6.77;2.20;;;5.30;1.00;;;;;;6189640;23;20623;-91
2023/04/25 23:03:47;;;;;;;5.67;1.97;;;5.20;1.00;;;;;;6182567;23;20173;-91
2023/04/25 23:06:12;;;;;;;4.17;1.60;;;5.20;1.00;;;;;;6182013;23;20170;-90
2023/04/25 23:08:38;;;;;;;6.63;2.33;;;5.10;1.00;;;;;;6182519;23;20646;-90
2023/04/25 23:11:07;;;;;;;7.00;2.40;;;5.00;1.00;;;;;;6182328;23;20167;-91
2023/04/25 23:13:36;;;;;;;6.33;1.93;;;5.30;1.00;;;;;;6182403;23;20265;-90
2023/04/25 23:16:07;;;;;;;6.57;1.80;;;5.40;1.00;;;;;;6182592;23;20217;-90
2023/04/25 23:18:34;;;;;;;7.70;2.30;;;5.20;1.00;;;;;;6207138;23;20253;-90
2023/04/25 23:21:00;;;;;;;6.50;2.10;;;5.10;1.00;;;;;;6182455;23;20159;-90
2023/04/25 23:23:27;;;;;;;8.00;2.30;;;4.90;1.00;;;;;;6182496;23;20172;-91
2023/04/25 23:25:52;;;;;;;6.03;2.27;;;4.80;1.00;;;;;;6182295;23;20162;-90
2023/04/25 23:28:18;;;;;;;7.47;2.63;;;5.90;1.00;;;;;;6182100;23;20170;-91
2023/04/25 23:30:43;;;;;;;5.77;1.90;;;4.80;1.00;;;;;;6182340;23;20630;-90
2023/04/25 23:33:09;;;;;;;7.73;2.60;;;4.80;1.00;;;;;;6182366;23;20186;-91
2023/04/25 23:35:37;;;;;;;7.17;2.03;;;4.70;1.00;;;;;;6182572;23;20261;-91
2023/04/25 23:38:02;;;;;;;5.80;2.10;;;4.60;1.00;;;;;;6182304;23;20285;-90
2023/04/25 23:40:30;;;;;;;8.10;2.23;;;4.70;1.00;;;;;;6182650;23;20154;-91
2023/04/25 23:42:56;;;;;;;3.67;1.70;;;4.70;1.00;;;;;;6182504;23;20182;-89
2023/04/25 23:45:22;;;;;;;4.40;1.63;;;4.70;1.00;;;;;;6209151;23;20158;-91
2023/04/25 23:47:48;;;;;;;5.77;2.10;;;4.60;1.00;;;;;;6182265;23;20158;-90
2023/04/25 23:50:13;;;;;;;6.27;1.90;;;4.60;1.00;;;;;;6181796;23;20186;-90
2023/04/25 23:52:39;;;;;;;7.70;2.10;;;4.70;1.00;;;;;;6182357;23;20174;-90
2023/04/25 23:55:05;;;;;;;6.27;1.97;;;4.70;1.00;;;;;;6182008;23;20316;-91
2023/04/25 23:57:31;;;;;;;7.87;2.20;;;4.80;1.00;;;;;;6182668;23;20193;-90
2023/04/25 23:59:57;;;;;;;4.77;1.87;;;4.70;1.00;;;;;;6181888;23;20162;-90
